Time;durP1;ratioP1;P1;durP2;ratioP2;P2;SDS_P1;SDS_P2;PMS_P1;PMS_P2;Temp;Humidity;BMP_temperature;BMP_pressure;BME280_temperature;BME280_humidity;BME280_pressure;Samples;Min_cycle;Max_cycle;Signal;HPM_P1;HPM_P2
2022/12/21 00:02:09;;;;;;;12.20;8.30;;;;;;;8.75;93.84;100262.20;105509;1287;59199;-77
2022/12/21 00:04:35;;;;;;;10.00;7.50;;;;;;;8.73;94.06;100260.26;105719;1283;59263;-77
2022/12/21 00:07:02;;;;;;;10.00;7.80;;;;;;;8.70;94.34;100260.40;105734;1291;58987;-77
2022/12/21 00:09:28;;;;;;;11.10;8.20;;;;;;;8.67;95.03;100262.70;105747;1291;58994;-77
2022/12/21 00:11:55;;;;;;;10.50;7.70;;;;;;;8.64;95.13;100257.29;105628;1291;59413;-77
2022/12/21 00:14:21;;;;;;;10.20;8.00;;;;;;;8.62;95.66;100264.16;105720;1292;60062;-77
2022/12/21 00:16:48;;;;;;;12.30;8.20;;;;;;;8.58;96.18;100264.92;105688;1278;59477;-77
2022/12/21 00:19:14;;;;;;;11.80;8.00;;;;;;;8.55;96.74;100257.63;105609;1292;58987;-77
2022/12/21 00:21:41;;;;;;;11.80;8.40;;;;;;;8.53;96.88;100258.59;105690;1284;59045;-77
2022/12/21 00:24:08;;;;;;;10.40;8.40;;;;;;;8.52;97.14;100260.36;105604;1288;71010;-77
2022/12/21 00:26:37;;;;;;;12.70;8.90;;;;;;;8.49;97.78;100257.48;105574;1292;72501;-77
2022/12/21 00:29:04;;;;;;;11.00;8.10;;;;;;;8.48;97.74;100253.77;105610;1291;59947;-77
2022/12/21 00:31:36;;;;;;;11.80;8.50;;;;;;;8.46;97.96;100250.56;105521;1291;60408;-77
2022/12/21 00:34:03;;;;;;;11.50;8.70;;;;;;;8.47;97.97;100250.48;105713;1290;75227;-77
2022/12/21 00:36:30;;;;;;;12.10;8.80;;;;;;;8.47;98.13;100248.05;105713;1290;72137;-77
2022/12/21 00:38:57;;;;;;;10.90;9.10;;;;;;;8.47;98.25;100249.64;105500;1293;72929;-76
2022/12/21 00:41:26;;;;;;;12.20;8.90;;;;;;;8.46;98.39;100248.65;105615;1284;60968;-76
2022/12/21 00:43:54;;;;;;;12.70;9.30;;;;;;;8.45;98.45;100244.33;105677;1290;59193;-76
2022/12/21 00:46:29;;;;;;;13.70;9.50;;;;;;;8.44;98.56;100241.12;105651;1291;76080;-76
2022/12/21 00:48:57;;;;;;;13.30;10.10;;;;;;;8.42;99.04;100246.98;105613;1291;69633;-76
2022/12/21 00:51:26;;;;;;;13.10;9.80;;;;;;;8.40;99.06;100247.16;105592;1287;72502;-75
2022/12/21 00:53:54;;;;;;;15.30;10.00;;;;;;;8.39;99.08;100250.13;105588;1291;60206;-75
2022/12/21 00:56:21;;;;;;;13.20;9.50;;;;;;;8.39;98.98;100250.81;105640;1284;59136;-75
2022/12/21 00:58:48;;;;;;;13.10;10.40;;;;;;;8.37;99.31;100253.48;105608;1292;73471;-75
2022/12/21 01:01:21;;;;;;;12.70;10.40;;;;;;;8.36;99.49;100254.67;105647;1291;69948;-75
2022/12/21 01:03:48;;;;;;;14.50;10.60;;;;;;;8.35;99.70;100253.91;105619;1284;72819;-75
2022/12/21 01:06:21;;;;;;;16.00;10.80;;;;;;;8.34;99.73;100249.96;105724;1291;59626;-75
2022/12/21 01:08:48;;;;;;;13.00;10.70;;;;;;;8.32;100.00;100251.23;105602;1288;61004;-75
2022/12/21 01:11:16;;;;;;;14.80;11.10;;;;;;;8.32;99.99;100253.44;105733;1291;73494;-75
2022/12/21 01:13:43;;;;;;;12.90;10.70;;;;;;;8.31;99.96;100251.20;105607;1292;70453;-75
2022/12/21 01:16:22;;;;;;;14.70;10.70;;;;;;;8.31;100.00;100251.70;105639;1284;73164;-75
2022/12/21 01:18:49;;;;;;;15.10;11.20;;;;;;;8.32;99.99;100259.88;105684;1290;60234;-74
2022/12/21 01:21:26;;;;;;;14.30;11.30;;;;;;;8.32;100.00;100265.89;105605;1291;59733;-74
2022/12/21 01:23:57;;;;;;;15.10;11.30;;;;;;;8.32;100.00;100268.52;105614;1291;74729;-74
2022/12/21 01:26:24;;;;;;;11.90;10.60;;;;;;;8.32;100.00;100270.35;105713;1291;70864;-74
2022/12/21 01:28:51;;;;;;;14.00;11.20;;;;;;;8.32;100.00;100270.88;105619;1291;72037;-74
2022/12/21 01:31:18;;;;;;;13.50;11.10;;;;;;;8.32;100.00;100277.52;105615;1284;60543;-74
2022/12/21 01:33:44;;;;;;;14.80;11.10;;;;;;;8.30;100.00;100279.80;105609;1286;59821;-74
2022/12/21 01:36:15;;;;;;;15.30;11.80;;;;;;;8.30;100.00;100272.23;105547;1285;59180;-74
2022/12/21 01:38:43;;;;;;;15.00;11.40;;;;;;;8.31;100.00;100273.09;105621;1291;71229;-74
2022/12/21 01:41:25;;;;;;;14.90;11.70;;;;;;;8.30;100.00;100279.48;105750;1291;71402;-74
2022/12/21 01:44:04;;;;;;;13.70;11.20;;;;;;;8.31;100.00;100274.98;105706;1284;60004;-74
2022/12/21 01:46:45;;;;;;;14.70;11.60;;;;;;;8.31;100.00;100272.54;105657;1292;58815;-74
2022/12/21 01:49:20;;;;;;;15.40;11.90;;;;;;;8.31;100.00;100272.18;105711;1292;74814;-74
2022/12/21 01:52:02;;;;;;;13.30;11.40;;;;;;;8.30;100.00;100272.47;105621;1284;71063;-74
2022/12/21 01:54:35;;;;;;;13.90;11.40;;;;;;;8.30;100.00;100273.56;105602;1291;73376;-74
2022/12/21 01:57:07;;;;;;;13.50;11.80;;;;;;;8.30;100.00;100273.69;105430;1292;60949;-74
2022/12/21 01:59:38;;;;;;;15.10;11.80;;;;;;;8.30;100.00;100273.66;105618;1290;59172;-74
2022/12/21 02:02:09;;;;;;;13.80;11.70;;;;;;;8.31;100.00;100275.31;105611;1285;74862;-74
2022/12/21 02:04:36;;;;;;;14.50;11.90;;;;;;;8.31;100.00;100275.05;105619;1291;69934;-74
2022/12/21 02:07:02;;;;;;;13.60;11.90;;;;;;;8.30;100.00;100270.16;105665;1292;70835;-74
2022/12/21 02:09:32;;;;;;;14.10;12.10;;;;;;;8.30;100.00;100270.15;105707;1291;59228;-74
2022/12/21 02:12:02;;;;;;;14.20;11.20;;;;;;;8.31;100.00;100275.20;105688;1292;60552;-74
2022/12/21 02:14:33;;;;;;;15.20;12.00;;;;;;;8.30;100.00;100277.52;105634;1282;73714;-74
2022/12/21 02:17:18;;;;;;;14.70;12.70;;;;;;;8.31;100.00;100275.27;105710;1284;71133;-74
2022/12/21 02:20:18;;;;;;;13.90;12.20;;;;;;;8.31;100.00;100278.64;105714;1291;72428;-74
2022/12/21 02:23:04;;;;;;;14.10;12.60;;;;;;;8.31;100.00;100276.01;105684;1285;59751;-74
2022/12/21 02:25:46;;;;;;;15.30;12.10;;;;;;;8.30;100.00;100274.71;105644;1284;60135;-74
2022/12/21 02:28:45;;;;;;;15.00;12.80;;;;;;;8.31;100.00;100276.45;105623;1292;73227;-74
2022/12/21 02:31:25;;;;;;;14.70;12.30;;;;;;;8.31;100.00;100274.08;105658;1292;71260;-74
2022/12/21 02:34:21;;;;;;;15.10;12.70;;;;;;;8.32;100.00;100269.41;105618;1285;71892;-74
2022/12/21 02:37:25;;;;;;;15.40;13.10;;;;;;;8.34;100.00;100270.11;105634;1291;61137;-74
2022/12/21 02:40:11;;;;;;;14.50;12.50;;;;;;;8.34;100.00;100274.34;105636;1292;59851;-74
2022/12/21 02:45:53;;;;;;;14.50;12.40;;;;;;;8.33;100.00;100276.15;105659;1287;71240;-74
2022/12/21 02:48:42;;;;;;;14.80;13.30;;;;;;;8.34;100.00;100272.32;105684;1291;71781;-74
2022/12/21 02:51:15;;;;;;;14.70;13.00;;;;;;;8.35;100.00;100275.02;105639;1291;59925;-73
2022/12/21 02:53:44;;;;;;;14.90;13.10;;;;;;;8.35;100.00;100278.44;105653;1290;60228;-74
2022/12/21 02:56:18;;;;;;;16.10;13.40;;;;;;;8.34;100.00;100284.01;105616;1292;74611;-74
2022/12/21 02:58:45;;;;;;;14.30;12.60;;;;;;;8.35;100.00;100287.93;105428;1295;71148;-74
2022/12/21 03:01:27;;;;;;;14.80;13.20;;;;;;;8.36;100.00;100285.73;105602;1288;71244;-74
2022/12/21 03:03:57;;;;;;;15.60;13.10;;;;;;;8.35;100.00;100280.15;105604;1282;60390;-74
2022/12/21 03:06:42;;;;;;;15.00;13.50;;;;;;;8.35;100.00;100282.25;105624;1292;59248;-74
2022/12/21 03:09:23;;;;;;;15.40;13.10;;;;;;;8.37;100.00;100286.65;105664;1282;75313;-74
2022/12/21 03:11:55;;;;;;;16.70;13.80;;;;;;;8.39;100.00;100284.84;105669;1288;71582;-74
2022/12/21 03:14:34;;;;;;;15.70;13.10;;;;;;;8.40;100.00;100285.07;105597;1283;70677;-74
2022/12/21 03:17:33;;;;;;;15.70;13.50;;;;;;;8.42;100.00;100283.00;105720;1292;62973;-74
2022/12/21 03:20:05;;;;;;;16.30;13.80;;;;;;;8.43;100.00;100279.45;105446;1294;59327;-74
2022/12/21 03:22:41;;;;;;;14.90;13.30;;;;;;;8.44;100.00;100277.08;105689;1282;74428;-73
2022/12/21 03:25:15;;;;;;;16.10;13.60;;;;;;;8.44;100.00;100273.90;105685;1292;69623;-74
2022/12/21 03:27:46;;;;;;;15.30;13.40;;;;;;;8.44;100.00;100271.95;105650;1292;71645;-74
2022/12/21 03:30:17;;;;;;;16.10;14.20;;;;;;;8.44;100.00;100273.41;105669;1284;59672;-74
2022/12/21 03:33:04;;;;;;;16.80;14.10;;;;;;;8.43;100.00;100275.13;105635;1292;59579;-74
2022/12/21 03:35:44;;;;;;;17.50;14.20;;;;;;;8.43;100.00;100278.30;105638;1291;74428;-74
2022/12/21 03:38:37;;;;;;;16.60;14.80;;;;;;;8.43;100.00;100276.33;105609;1284;69029;-74
2022/12/21 03:41:09;;;;;;;17.80;14.60;;;;;;;8.43;100.00;100279.45;105620;1288;73031;-74
2022/12/21 03:43:36;;;;;;;19.00;14.80;;;;;;;8.44;100.00;100279.95;105597;1291;60564;-74
2022/12/21 03:46:09;;;;;;;18.10;15.10;;;;;;;8.44;100.00;100279.36;105679;1282;59335;-74
2022/12/21 03:48:42;;;;;;;17.00;14.90;;;;;;;8.43;100.00;100278.39;105630;1284;75038;-74
2022/12/21 03:51:20;;;;;;;19.00;15.30;;;;;;;8.42;100.00;100278.70;105489;1294;70414;-74
2022/12/21 03:54:26;;;;;;;17.80;15.80;;;;;;;8.42;100.00;100284.88;105717;1292;71114;-74
2022/12/21 03:57:04;;;;;;;19.40;15.60;;;;;;;8.40;100.00;100280.90;105811;1291;60002;-74
2022/12/21 03:59:31;;;;;;;19.60;16.00;;;;;;;8.39;100.00;100275.88;105639;1295;59885;-74
2022/12/21 04:02:20;;;;;;;20.00;16.50;;;;;;;8.39;100.00;100272.20;105726;1284;72475;-74
2022/12/21 04:05:04;;;;;;;20.50;16.30;;;;;;;8.38;100.00;100271.34;105710;1291;70035;-74
2022/12/21 04:07:33;;;;;;;21.00;16.70;;;;;;;8.36;100.00;100269.23;105638;1288;73683;-74
2022/12/21 04:12:58;;;;;;;18.40;16.40;;;;;;;8.35;100.00;100272.21;105611;1292;59129;-74
2022/12/21 04:16:03;;;;;;;18.30;15.90;;;;;;;8.34;100.00;100272.31;105698;1291;59068;-74
2022/12/21 04:18:13;;;;;;;18.30;16.30;;;;;;;8.34;100.00;100268.26;105627;1284;71383;-74
2022/12/21 04:20:40;;;;;;;21.20;17.00;;;;;;;8.34;100.00;100266.50;105658;1291;72390;-74
2022/12/21 04:28:38;;;;;;;20.20;16.70;;;;;;;8.31;100.00;100267.74;105696;1297;74610;-74
2022/12/21 04:31:16;;;;;;;20.30;17.50;;;;;;;8.29;100.00;100265.70;105648;1291;69680;-74
2022/12/21 04:33:43;;;;;;;19.20;17.10;;;;;;;8.28;100.00;100272.48;105595;1285;72452;-74
2022/12/21 04:38:54;;;;;;;21.30;18.30;;;;;;;8.25;100.00;100264.63;105723;1287;59359;-74
2022/12/21 04:41:21;;;;;;;22.00;18.40;;;;;;;8.23;100.00;100266.74;105620;1291;58879;-74
2022/12/21 04:47:35;;;;;;;22.00;18.30;;;;;;;8.20;100.00;100268.10;105713;1285;72697;-74
2022/12/21 04:50:05;;;;;;;20.30;18.00;;;;;;;8.20;100.00;100270.55;105644;1291;61511;-74
2022/12/21 04:52:32;;;;;;;23.80;18.70;;;;;;;8.20;100.00;100270.75;105623;1298;60460;-74
2022/12/21 04:54:58;;;;;;;24.40;18.90;;;;;;;8.19;100.00;100270.31;105613;1292;75047;-74
2022/12/21 04:57:25;;;;;;;22.30;18.30;;;;;;;8.17;100.00;100270.82;105731;1291;59173;-74
2022/12/21 04:59:51;;;;;;;24.80;19.70;;;;;;;8.16;100.00;100268.19;105514;1295;72066;-74
2022/12/21 05:02:18;;;;;;;22.20;18.70;;;;;;;8.14;100.00;100268.75;105680;1281;59135;-74
2022/12/21 05:04:44;;;;;;;23.40;18.80;;;;;;;8.13;100.00;100271.52;105611;1291;59158;-74
2022/12/21 05:07:11;;;;;;;24.10;19.50;;;;;;;8.10;100.00;100274.80;105729;1288;59120;-74
2022/12/21 05:09:37;;;;;;;24.80;19.40;;;;;;;8.08;100.00;100277.52;105696;1291;59429;-74
2022/12/21 05:12:04;;;;;;;24.90;19.40;;;;;;;8.06;100.00;100275.20;105601;1292;59011;-74
2022/12/21 05:14:31;;;;;;;24.50;20.10;;;;;;;8.05;100.00;100274.98;105706;1292;59807;-74
2022/12/21 05:16:57;;;;;;;24.80;20.10;;;;;;;8.05;100.00;100265.98;105701;1292;58976;-74
2022/12/21 05:19:24;;;;;;;24.80;19.60;;;;;;;8.05;100.00;100262.30;105702;1282;75088;-74
2022/12/21 05:21:51;;;;;;;23.90;19.40;;;;;;;8.06;100.00;100262.99;105582;1297;70847;-74
2022/12/21 05:24:17;;;;;;;23.50;20.00;;;;;;;8.07;100.00;100262.25;105673;1291;71191;-74
2022/12/21 05:26:44;;;;;;;24.30;18.70;;;;;;;8.08;100.00;100254.03;105675;1288;59422;-74
2022/12/21 05:29:10;;;;;;;24.80;20.30;;;;;;;8.09;100.00;100253.08;105640;1284;59669;-74
2022/12/21 05:31:37;;;;;;;23.50;19.10;;;;;;;8.10;100.00;100251.92;105719;1290;59941;-74
2022/12/21 05:34:03;;;;;;;27.80;19.40;;;;;;;8.10;100.00;100252.05;105692;1291;59492;-74
2022/12/21 05:36:30;;;;;;;24.30;19.50;;;;;;;8.09;100.00;100255.52;105586;1290;59083;-74
2022/12/21 05:39:00;;;;;;;27.00;19.90;;;;;;;8.09;100.00;100259.41;105736;1289;59340;-74
2022/12/21 05:41:26;;;;;;;24.20;19.50;;;;;;;8.09;100.00;100257.46;105633;1292;60176;-74
2022/12/21 05:43:53;;;;;;;25.00;19.20;;;;;;;8.09;100.00;100252.88;105682;1291;74968;-74
2022/12/21 05:46:19;;;;;;;23.50;19.10;;;;;;;8.09;100.00;100250.27;105639;1297;70378;-74
2022/12/21 05:48:54;;;;;;;26.90;20.00;;;;;;;8.10;100.00;100250.17;105649;1290;72739;-75
2022/12/21 05:51:21;;;;;;;25.70;18.80;;;;;;;8.11;100.00;100256.60;105706;1292;61316;-74
2022/12/21 05:53:47;;;;;;;25.10;19.60;;;;;;;8.10;100.00;100254.36;105740;1295;60097;-74
2022/12/21 05:56:14;;;;;;;24.70;18.90;;;;;;;8.11;100.00;100254.59;105785;1291;60295;-74
2022/12/21 05:58:41;;;;;;;25.80;19.10;;;;;;;8.12;100.00;100256.64;105785;1292;59487;-74
2022/12/21 06:01:09;;;;;;;27.10;20.10;;;;;;;8.12;100.00;100259.45;105756;1275;72108;-74
2022/12/21 06:03:36;;;;;;;26.40;20.00;;;;;;;8.10;100.00;100257.16;105611;1295;61740;-74
2022/12/21 06:06:06;;;;;;;26.30;19.90;;;;;;;8.10;100.00;100254.59;105740;1290;58939;-74
2022/12/21 06:08:34;;;;;;;27.50;20.50;;;;;;;8.09;100.00;100256.21;105727;1290;73401;-74
2022/12/21 06:11:06;;;;;;;24.70;19.40;;;;;;;8.08;100.00;100251.79;105584;1295;72068;-74
2022/12/21 06:13:32;;;;;;;25.90;19.80;;;;;;;8.08;100.00;100253.21;105683;1290;73012;-75
2022/12/21 06:16:10;;;;;;;26.30;19.70;;;;;;;8.08;100.00;100257.61;105691;1292;59945;-75
2022/12/21 06:18:38;;;;;;;25.10;20.00;;;;;;;8.07;100.00;100263.80;105588;1294;60879;-75
2022/12/21 06:21:05;;;;;;;25.70;20.30;;;;;;;8.04;100.00;100268.05;105617;1290;74517;-75
2022/12/21 06:23:32;;;;;;;27.80;20.80;;;;;;;8.01;100.00;100272.81;105573;1292;70898;-75
2022/12/21 06:26:01;;;;;;;28.00;21.00;;;;;;;7.98;100.00;100274.89;105581;1292;71143;-75
2022/12/21 06:28:28;;;;;;;25.90;20.00;;;;;;;7.96;100.00;100277.41;105510;1290;60643;-74
2022/12/21 06:31:00;;;;;;;27.40;19.30;;;;;;;7.94;100.00;100279.36;105600;1292;58913;-74
2022/12/21 06:33:27;;;;;;;27.10;20.40;;;;;;;7.92;100.00;100276.27;105721;1291;74801;-75
2022/12/21 06:35:57;;;;;;;27.60;19.80;;;;;;;7.91;100.00;100280.42;105718;1292;71185;-75
2022/12/21 06:38:24;;;;;;;28.70;20.60;;;;;;;7.90;100.00;100277.85;105442;1294;223663;-75
2022/12/21 06:41:18;;;;;;;27.20;20.60;;;;;;;7.91;100.00;100280.99;105514;1292;62367;-75
2022/12/21 06:43:46;;;;;;;28.20;20.30;;;;;;;7.92;100.00;100282.20;105598;1295;59008;-75
2022/12/21 06:46:15;;;;;;;27.50;19.50;;;;;;;7.93;100.00;100281.98;105631;1292;74942;-75
2022/12/21 06:48:42;;;;;;;28.70;20.40;;;;;;;7.94;100.00;100279.89;105630;1290;69588;-75
2022/12/21 06:51:18;;;;;;;26.70;19.60;;;;;;;7.95;100.00;100280.84;105624;1290;71539;-75
2022/12/21 06:53:46;;;;;;;28.80;20.60;;;;;;;7.94;100.00;100284.02;105620;1294;60939;-75
2022/12/21 06:56:24;;;;;;;27.40;19.90;;;;;;;7.92;100.00;100291.42;105615;1288;59353;-75
2022/12/21 06:58:53;;;;;;;26.30;19.10;;;;;;;7.92;100.00;100292.34;105605;1294;73174;-76
2022/12/21 07:01:22;;;;;;;26.40;19.60;;;;;;;7.90;100.00;100294.95;105595;1291;71249;-75
2022/12/21 07:03:49;;;;;;;27.40;20.10;;;;;;;7.90;100.00;100294.78;105689;1292;72688;-75
2022/12/21 07:06:18;;;;;;;27.40;20.20;;;;;;;7.90;100.00;100299.40;105701;1288;59649;-75
2022/12/21 07:08:45;;;;;;;26.50;19.40;;;;;;;7.90;100.00;100304.48;105734;1291;60172;-75
2022/12/21 07:11:14;;;;;;;29.20;21.10;;;;;;;7.88;100.00;100305.75;105620;1293;74137;-76
2022/12/21 07:13:42;;;;;;;27.50;20.50;;;;;;;7.87;100.00;100311.13;105570;1297;69996;-75
2022/12/21 07:16:10;;;;;;;27.40;20.50;;;;;;;7.87;100.00;100308.91;105709;1290;71500;-75
2022/12/21 07:18:37;;;;;;;28.00;20.80;;;;;;;7.87;100.00;100309.62;105704;1288;61045;-75
2022/12/21 07:21:08;;;;;;;30.80;22.00;;;;;;;7.85;100.00;100309.59;105718;1292;59348;-75
2022/12/21 07:23:36;;;;;;;29.50;22.10;;;;;;;7.86;100.00;100312.13;105693;1284;74189;-75
2022/12/21 07:26:17;;;;;;;31.70;22.60;;;;;;;7.87;100.00;100309.25;105717;1292;69414;-75
2022/12/21 07:28:45;;;;;;;29.20;21.60;;;;;;;7.88;100.00;100312.09;105761;1292;71735;-75
2022/12/21 07:31:15;;;;;;;34.60;22.10;;;;;;;7.89;100.00;100308.79;105503;1284;60017;-75
2022/12/21 07:33:42;;;;;;;31.50;22.00;;;;;;;7.91;100.00;100305.05;105796;1292;60827;-75
2022/12/21 07:36:09;;;;;;;32.80;22.90;;;;;;;7.93;100.00;100304.85;105804;1292;59782;-75
2022/12/21 07:38:38;;;;;;;30.80;22.10;;;;;;;7.92;100.00;100302.99;105729;1295;68839;-75
2022/12/21 07:41:07;;;;;;;31.30;22.10;;;;;;;7.95;100.00;100304.59;105729;1291;71140;-74
2022/12/21 07:43:35;;;;;;;29.80;22.00;;;;;;;7.97;100.00;100309.37;105734;1292;62638;-71
2022/12/21 07:46:02;;;;;;;31.90;21.90;;;;;;;7.99;100.00;100311.85;105765;1290;58910;-72
2022/12/21 07:48:29;;;;;;;32.30;22.20;;;;;;;8.01;100.00;100305.01;105736;1292;74511;-72
2022/12/21 07:50:57;;;;;;;35.10;22.10;;;;;;;8.06;100.00;100300.96;105706;1288;70834;-73
2022/12/21 07:53:24;;;;;;;32.10;21.80;;;;;;;8.09;100.00;100298.15;105731;1290;72041;-72
2022/12/21 07:55:51;;;;;;;32.60;22.00;;;;;;;8.12;100.00;100300.69;105732;1292;58993;-72
2022/12/21 07:58:17;;;;;;;31.60;21.40;;;;;;;8.15;100.00;100301.05;105826;1291;59190;-72
2022/12/21 08:00:45;;;;;;;31.40;21.40;;;;;;;8.19;100.00;100305.96;105757;1290;59224;-72
2022/12/21 08:03:11;;;;;;;29.80;21.50;;;;;;;8.22;100.00;100304.04;105853;1291;70537;-72
2022/12/21 08:05:38;;;;;;;31.00;21.00;;;;;;;8.24;100.00;100308.32;105716;1295;71641;-72
2022/12/21 08:08:05;;;;;;;33.20;21.30;;;;;;;8.26;100.00;100306.01;105771;1290;60956;-72
2022/12/21 08:10:32;;;;;;;33.10;21.80;;;;;;;8.29;100.00;100310.98;105604;1292;59289;-72
2022/12/21 08:12:58;;;;;;;33.30;21.20;;;;;;;8.32;100.00;100307.77;105671;1296;73418;-72
2022/12/21 08:15:25;;;;;;;30.80;21.00;;;;;;;8.33;100.00;100300.10;105773;1281;59109;-72
2022/12/21 08:17:51;;;;;;;31.30;21.80;;;;;;;8.35;100.00;100293.19;105634;1294;59153;-71
2022/12/21 08:20:18;;;;;;;31.10;21.40;;;;;;;8.37;100.00;100296.69;105805;1284;60929;-72
2022/12/21 08:22:45;;;;;;;34.00;21.20;;;;;;;8.40;100.00;100296.58;105621;1290;59298;-71
2022/12/21 08:25:12;;;;;;;30.10;20.40;;;;;;;8.41;100.00;100292.02;105615;1290;59024;-71
2022/12/21 08:27:38;;;;;;;30.10;21.10;;;;;;;8.41;100.00;100288.54;105682;1289;69622;-71
2022/12/21 08:30:05;;;;;;;31.00;21.10;;;;;;;8.41;100.00;100291.37;105757;1291;72112;-71
2022/12/21 08:32:32;;;;;;;33.50;20.80;;;;;;;8.41;100.00;100293.27;105789;1290;60842;-71
2022/12/21 08:34:58;;;;;;;32.90;21.60;;;;;;;8.40;100.00;100289.48;105794;1291;59001;-71
2022/12/21 08:37:25;;;;;;;31.20;21.70;;;;;;;8.41;100.00;100285.86;105679;1291;58839;-71
2022/12/21 08:39:51;;;;;;;34.70;21.80;;;;;;;8.43;100.00;100283.23;105759;1290;58996;-71
2022/12/21 08:42:18;;;;;;;32.50;21.70;;;;;;;8.46;100.00;100285.29;105764;1292;71387;-71
2022/12/21 08:44:44;;;;;;;30.10;20.60;;;;;;;8.50;100.00;100285.54;105747;1281;59447;-71
2022/12/21 08:47:11;;;;;;;32.20;21.50;;;;;;;8.55;100.00;100283.61;105732;1290;59220;-71
2022/12/21 08:49:37;;;;;;;28.80;20.50;;;;;;;8.60;100.00;100284.17;105731;1291;59042;-71
2022/12/21 08:52:04;;;;;;;30.90;19.50;;;;;;;8.62;100.00;100284.92;105798;1292;59519;-72
2022/12/21 08:54:30;;;;;;;29.80;20.10;;;;;;;8.65;100.00;100286.89;105684;1298;58872;-71
2022/12/21 08:56:57;;;;;;;27.20;20.00;;;;;;;8.67;100.00;100288.64;105802;1284;58896;-72
2022/12/21 08:59:23;;;;;;;27.60;19.10;;;;;;;8.67;100.00;100290.59;105698;1294;59296;-72
2022/12/21 09:01:51;;;;;;;27.00;18.50;;;;;;;8.68;100.00;100293.33;105801;1290;58827;-72
2022/12/21 09:04:18;;;;;;;25.10;18.50;;;;;;;8.69;100.00;100293.20;105701;1291;71390;-72
2022/12/21 09:06:45;;;;;;;26.40;19.30;;;;;;;8.69;100.00;100296.66;105815;1296;72980;-72
2022/12/21 09:09:11;;;;;;;25.30;19.00;;;;;;;8.70;100.00;100298.72;105744;1291;59072;-72
2022/12/21 09:11:38;;;;;;;25.60;18.80;;;;;;;8.69;100.00;100298.95;105799;1290;59230;-72
2022/12/21 09:14:19;;;;;;;25.40;19.40;;;;;;;8.69;100.00;100300.75;105634;1277;75165;-72
2022/12/21 09:16:46;;;;;;;22.90;17.40;;;;;;;8.72;100.00;100296.75;105719;1290;59513;-72
2022/12/21 09:19:12;;;;;;;24.70;18.30;;;;;;;8.75;100.00;100299.55;105780;1292;71928;-72
2022/12/21 09:21:39;;;;;;;21.70;17.30;;;;;;;8.76;100.00;100301.36;105722;1292;61929;-72
2022/12/21 09:24:06;;;;;;;23.10;18.00;;;;;;;8.75;100.00;100301.83;105752;1291;60504;-72
2022/12/21 09:26:33;;;;;;;25.70;17.90;;;;;;;8.74;100.00;100309.20;105824;1290;75168;-72
2022/12/21 09:28:59;;;;;;;21.10;17.00;;;;;;;8.73;100.00;100310.36;105702;1292;59376;-72
2022/12/21 09:31:26;;;;;;;23.40;17.00;;;;;;;8.71;100.00;100311.93;105693;1296;71234;-72
2022/12/21 09:33:55;;;;;;;23.40;17.70;;;;;;;8.71;100.00;100311.63;105689;1292;61352;-72
2022/12/21 09:36:22;;;;;;;26.40;17.80;;;;;;;8.71;100.00;100315.52;105793;1290;61149;-72
2022/12/21 09:38:49;;;;;;;24.90;17.90;;;;;;;8.69;100.00;100309.52;105686;1292;73132;-72
2022/12/21 09:41:27;;;;;;;23.80;18.10;;;;;;;8.69;100.00;100306.77;105781;1291;59400;-72
2022/12/21 09:44:20;;;;;;;23.20;17.90;;;;;;;8.69;100.00;100300.39;105744;1291;71530;-72
2022/12/21 09:46:53;;;;;;;23.90;18.40;;;;;;;8.71;100.00;100294.66;105660;1291;59753;-72
2022/12/21 09:49:31;;;;;;;22.60;17.90;;;;;;;8.73;100.00;100296.55;105084;1285;61361;-72
2022/12/21 09:52:02;;;;;;;24.20;17.20;;;;;;;8.76;100.00;100287.19;105743;1292;74198;-72
2022/12/21 09:54:35;;;;;;;24.10;17.90;;;;;;;8.78;100.00;100288.06;105748;1292;70361;-72
2022/12/21 09:57:01;;;;;;;23.00;17.40;;;;;;;8.80;100.00;100292.61;105830;1290;72842;-72
2022/12/21 09:59:29;;;;;;;23.30;17.10;;;;;;;8.84;100.00;100292.92;105717;1292;59191;-72
2022/12/21 10:02:21;;;;;;;23.80;17.60;;;;;;;8.86;100.00;100290.30;105674;1291;59036;-72
2022/12/21 10:05:09;;;;;;;24.10;17.90;;;;;;;8.88;100.00;100287.33;105585;1291;73105;-72
2022/12/21 10:08:17;;;;;;;21.90;16.00;;;;;;;8.90;100.00;100290.20;105789;1291;69837;-72
2022/12/21 10:11:22;;;;;;;19.50;15.40;;;;;;;8.90;100.00;100289.67;105720;1292;72864;-72
2022/12/21 10:13:58;;;;;;;21.30;15.80;;;;;;;8.89;100.00;100286.13;105672;1291;59047;-72
2022/12/21 10:16:59;;;;;;;21.40;15.70;;;;;;;8.90;100.00;100285.35;105805;1285;60194;-72
2022/12/21 10:20:22;;;;;;;21.50;15.70;;;;;;;8.89;100.00;100290.76;105800;1299;75420;-72
2022/12/21 10:22:54;;;;;;;21.10;16.30;;;;;;;8.87;100.00;100286.86;105799;1288;70540;-72
2022/12/21 10:25:23;;;;;;;20.00;15.50;;;;;;;8.86;100.00;100279.20;105709;1290;71483;-72
2022/12/21 10:27:56;;;;;;;19.70;15.00;;;;;;;8.88;100.00;100280.23;105744;1291;59621;-72
2022/12/21 10:30:23;;;;;;;22.00;16.30;;;;;;;8.91;100.00;100276.05;105729;1290;59545;-72
2022/12/21 10:32:50;;;;;;;21.80;15.80;;;;;;;8.94;100.00;100274.65;105742;1291;72581;-72
2022/12/21 10:35:35;;;;;;;22.80;15.90;;;;;;;8.98;100.00;100268.95;105692;1283;70873;-72
2022/12/21 10:38:12;;;;;;;18.90;15.00;;;;;;;9.03;100.00;100268.73;105738;1285;72357;-72
2022/12/21 10:40:39;;;;;;;20.20;14.70;;;;;;;9.06;100.00;100274.58;105726;1292;60241;-72
2022/12/21 10:43:05;;;;;;;20.80;15.50;;;;;;;9.07;100.00;100274.40;105719;1297;59180;-72
2022/12/21 10:45:32;;;;;;;20.70;15.00;;;;;;;9.09;100.00;100272.96;105784;1292;59571;-72
2022/12/21 10:47:58;;;;;;;21.10;15.70;;;;;;;9.08;100.00;100269.05;105671;1295;70260;-72
2022/12/21 10:50:31;;;;;;;18.80;15.00;;;;;;;9.08;100.00;100265.17;105746;1292;58993;-72
2022/12/21 10:52:59;;;;;;;18.30;13.70;;;;;;;9.08;100.00;100263.16;105588;1287;62086;-72
2022/12/21 10:55:32;;;;;;;16.00;12.70;;;;;;;9.06;100.00;100260.45;105734;1290;59165;-72
2022/12/21 10:58:02;;;;;;;15.70;12.50;;;;;;;9.03;100.00;100259.58;105743;1292;73348;-72
2022/12/21 11:00:38;;;;;;;16.70;13.10;;;;;;;9.00;100.00;100252.98;105768;1291;70463;-72
2022/12/21 11:03:21;;;;;;;16.30;12.30;;;;;;;9.03;100.00;100251.09;105692;1291;71342;-72
2022/12/21 11:05:48;;;;;;;16.00;12.00;;;;;;;9.05;100.00;100247.30;105662;1292;59908;-72
2022/12/21 11:08:31;;;;;;;14.50;11.70;;;;;;;9.10;100.00;100245.39;105685;1287;58915;-72
2022/12/21 11:11:04;;;;;;;15.50;11.40;;;;;;;9.13;100.00;100241.34;105786;1284;75112;-72
2022/12/21 11:13:32;;;;;;;13.80;11.10;;;;;;;9.13;100.00;100233.12;105801;1288;59024;-72
2022/12/21 11:16:06;;;;;;;14.70;11.10;;;;;;;9.17;100.00;100236.89;105665;1291;70572;-72
2022/12/21 11:18:41;;;;;;;15.90;11.30;;;;;;;9.21;100.00;100236.21;105627;1292;59690;-72
2022/12/21 11:21:21;;;;;;;12.90;10.80;;;;;;;9.25;100.00;100234.41;105726;1292;61483;-72
2022/12/21 11:23:56;;;;;;;13.40;10.70;;;;;;;9.26;100.00;100235.51;105727;1285;74666;-72
2022/12/21 11:26:30;;;;;;;13.60;10.70;;;;;;;9.23;100.00;100239.02;105682;1290;71857;-72
2022/12/21 11:29:03;;;;;;;12.90;10.70;;;;;;;9.19;100.00;100244.05;105734;1292;73409;-72
2022/12/21 11:31:31;;;;;;;14.20;11.30;;;;;;;9.16;100.00;100243.52;105696;1291;59610;-72
2022/12/21 11:34:19;;;;;;;14.00;11.20;;;;;;;9.14;100.00;100238.64;105593;1292;59264;-73
2022/12/21 11:36:57;;;;;;;14.70;11.40;;;;;;;9.12;100.00;100236.43;105804;1291;74433;-72
2022/12/21 11:39:24;;;;;;;14.60;11.80;;;;;;;9.11;100.00;100230.91;105648;1291;71093;-72
2022/12/21 11:41:52;;;;;;;14.90;12.60;;;;;;;9.12;100.00;100226.17;105787;1292;73101;-72